Yardley, Pennsylvania
Current Conditions -  °F | °C
As of 8:53 PM on Sunday 23 Nov 2014 (Local Time) from KTTN Reporting Station
Clear Clear  
Wind Chill: 44°   Ceiling: Unl
Heat Index: 46°   Visibility: 10mi
Dew Point: 36°   Wind: 5mph
Humidity: 68%   Direction: 80°E
Pressure: 30.06"   Gusts: NA
Location:  40.1994°N, 74.8145°W
Report Text: KTTN 240153Z 08004KT 10SM CLR 08/02 A3006 RMK AO2 SLP174 T00780022
Loading
Personal Weather Stations






























Interactive Weather Map New forecast layout! Learn more

10-Day Weather Forecast

Advertisements
Track Severe Weather on mobile